sensor_id;sensor_type;location;lat;lon;timestamp;P1;durP1;ratioP1;P2;durP2;ratioP2
32633;SDS011;19043;51.012;5.648;2023-05-10T00:01:14;39.42;;;25.15;;
32633;SDS011;19043;51.012;5.648;2023-05-10T00:03:39;38.38;;;26.50;;
32633;SDS011;19043;51.012;5.648;2023-05-10T00:06:05;32.78;;;24.95;;
32633;SDS011;19043;51.012;5.648;2023-05-10T00:08:30;40.55;;;28.15;;
32633;SDS011;19043;51.012;5.648;2023-05-10T00:10:55;39.20;;;26.67;;
32633;SDS011;19043;51.012;5.648;2023-05-10T00:13:21;36.97;;;27.67;;
32633;SDS011;19043;51.012;5.648;2023-05-10T00:15:46;41.42;;;25.13;;
32633;SDS011;19043;51.012;5.648;2023-05-10T00:18:12;40.70;;;28.88;;
32633;SDS011;19043;51.012;5.648;2023-05-10T00:20:37;40.92;;;30.13;;
32633;SDS011;19043;51.012;5.648;2023-05-10T00:23:02;39.80;;;29.67;;
32633;SDS011;19043;51.012;5.648;2023-05-10T00:25:27;47.72;;;31.33;;
32633;SDS011;19043;51.012;5.648;2023-05-10T00:27:53;40.38;;;29.33;;
32633;SDS011;19043;51.012;5.648;2023-05-10T00:30:20;57.33;;;32.40;;
32633;SDS011;19043;51.012;5.648;2023-05-10T00:32:45;69.97;;;38.63;;
32633;SDS011;19043;51.012;5.648;2023-05-10T00:35:10;38.38;;;30.38;;
32633;SDS011;19043;51.012;5.648;2023-05-10T00:37:36;35.83;;;30.75;;
32633;SDS011;19043;51.012;5.648;2023-05-10T00:40:01;51.97;;;32.60;;
32633;SDS011;19043;51.012;5.648;2023-05-10T00:42:26;40.17;;;31.02;;
32633;SDS011;19043;51.012;5.648;2023-05-10T00:44:52;55.05;;;34.53;;
32633;SDS011;19043;51.012;5.648;2023-05-10T00:47:17;42.50;;;31.35;;
32633;SDS011;19043;51.012;5.648;2023-05-10T00:49:42;43.00;;;32.05;;
32633;SDS011;19043;51.012;5.648;2023-05-10T00:52:08;48.35;;;34.20;;
32633;SDS011;19043;51.012;5.648;2023-05-10T00:54:34;43.80;;;35.10;;
32633;SDS011;19043;51.012;5.648;2023-05-10T00:56:59;64.47;;;35.83;;
32633;SDS011;19043;51.012;5.648;2023-05-10T00:59:24;39.38;;;29.98;;
32633;SDS011;19043;51.012;5.648;2023-05-10T01:01:50;41.05;;;33.70;;
32633;SDS011;19043;51.012;5.648;2023-05-10T01:04:16;42.13;;;31.35;;
32633;SDS011;19043;51.012;5.648;2023-05-10T01:06:42;33.50;;;29.65;;
32633;SDS011;19043;51.012;5.648;2023-05-10T01:09:07;34.10;;;29.45;;
32633;SDS011;19043;51.012;5.648;2023-05-10T01:11:33;39.67;;;29.23;;
32633;SDS011;19043;51.012;5.648;2023-05-10T01:13:59;42.92;;;31.02;;
32633;SDS011;19043;51.012;5.648;2023-05-10T01:16:25;42.95;;;30.23;;
32633;SDS011;19043;51.012;5.648;2023-05-10T01:18:51;38.78;;;29.98;;
32633;SDS011;19043;51.012;5.648;2023-05-10T01:21:21;37.80;;;30.13;;
32633;SDS011;19043;51.012;5.648;2023-05-10T01:31:57;33.95;;;28.75;;
32633;SDS011;19043;51.012;5.648;2023-05-10T01:34:25;29.67;;;25.95;;
32633;SDS011;19043;51.012;5.648;2023-05-10T01:39:45;30.73;;;27.08;;
32633;SDS011;19043;51.012;5.648;2023-05-10T01:42:20;32.85;;;26.75;;
32633;SDS011;19043;51.012;5.648;2023-05-10T01:44:49;36.15;;;27.58;;
32633;SDS011;19043;51.012;5.648;2023-05-10T01:47:24;30.73;;;24.67;;
32633;SDS011;19043;51.012;5.648;2023-05-10T01:49:54;32.47;;;26.73;;
32633;SDS011;19043;51.012;5.648;2023-05-10T01:52:22;30.35;;;24.92;;
32633;SDS011;19043;51.012;5.648;2023-05-10T01:54:55;41.40;;;25.35;;
32633;SDS011;19043;51.012;5.648;2023-05-10T01:57:20;28.17;;;23.58;;
32633;SDS011;19043;51.012;5.648;2023-05-10T01:59:47;25.45;;;22.58;;
32633;SDS011;19043;51.012;5.648;2023-05-10T02:02:13;28.65;;;23.08;;
32633;SDS011;19043;51.012;5.648;2023-05-10T02:04:39;25.67;;;20.75;;
32633;SDS011;19043;51.012;5.648;2023-05-10T02:07:06;26.67;;;21.27;;
32633;SDS011;19043;51.012;5.648;2023-05-10T02:09:32;26.00;;;20.10;;
32633;SDS011;19043;51.012;5.648;2023-05-10T02:11:58;25.92;;;20.45;;
32633;SDS011;19043;51.012;5.648;2023-05-10T02:14:24;29.65;;;21.42;;
32633;SDS011;19043;51.012;5.648;2023-05-10T02:16:50;23.98;;;20.52;;
32633;SDS011;19043;51.012;5.648;2023-05-10T02:19:16;29.60;;;20.70;;
32633;SDS011;19043;51.012;5.648;2023-05-10T02:21:43;28.17;;;20.05;;
32633;SDS011;19043;51.012;5.648;2023-05-10T02:24:09;28.45;;;22.13;;
32633;SDS011;19043;51.012;5.648;2023-05-10T02:26:35;29.48;;;21.38;;
32633;SDS011;19043;51.012;5.648;2023-05-10T02:29:03;25.42;;;20.63;;
32633;SDS011;19043;51.012;5.648;2023-05-10T02:31:31;30.23;;;20.95;;
32633;SDS011;19043;51.012;5.648;2023-05-10T02:33:57;30.38;;;21.85;;
32633;SDS011;19043;51.012;5.648;2023-05-10T02:36:23;35.50;;;22.98;;
32633;SDS011;19043;51.012;5.648;2023-05-10T02:38:49;32.20;;;22.10;;
32633;SDS011;19043;51.012;5.648;2023-05-10T02:41:15;31.85;;;19.50;;
32633;SDS011;19043;51.012;5.648;2023-05-10T02:43:41;42.67;;;23.48;;
32633;SDS011;19043;51.012;5.648;2023-05-10T02:46:06;30.65;;;20.15;;
32633;SDS011;19043;51.012;5.648;2023-05-10T02:48:32;33.70;;;21.25;;
32633;SDS011;19043;51.012;5.648;2023-05-10T02:51:00;34.03;;;20.58;;
32633;SDS011;19043;51.012;5.648;2023-05-10T02:53:31;30.20;;;21.05;;
32633;SDS011;19043;51.012;5.648;2023-05-10T02:55:57;40.28;;;22.77;;
32633;SDS011;19043;51.012;5.648;2023-05-10T02:58:23;34.88;;;23.50;;
32633;SDS011;19043;51.012;5.648;2023-05-10T03:00:49;29.33;;;21.30;;
32633;SDS011;19043;51.012;5.648;2023-05-10T03:03:14;36.03;;;23.08;;
32633;SDS011;19043;51.012;5.648;2023-05-10T03:05:39;33.28;;;23.48;;
32633;SDS011;19043;51.012;5.648;2023-05-10T03:08:05;31.40;;;23.50;;
32633;SDS011;19043;51.012;5.648;2023-05-10T03:10:31;33.13;;;22.38;;
32633;SDS011;19043;51.012;5.648;2023-05-10T03:18:01;38.03;;;23.40;;
32633;SDS011;19043;51.012;5.648;2023-05-10T03:20:31;42.25;;;24.58;;
32633;SDS011;19043;51.012;5.648;2023-05-10T03:25:45;33.17;;;24.48;;
32633;SDS011;19043;51.012;5.648;2023-05-10T03:28:12;36.20;;;24.58;;
32633;SDS011;19043;51.012;5.648;2023-05-10T03:30:38;36.03;;;25.90;;
32633;SDS011;19043;51.012;5.648;2023-05-10T03:33:04;41.40;;;25.88;;
32633;SDS011;19043;51.012;5.648;2023-05-10T03:35:30;45.42;;;26.00;;
32633;SDS011;19043;51.012;5.648;2023-05-10T03:37:55;37.67;;;27.58;;
32633;SDS011;19043;51.012;5.648;2023-05-10T03:40:21;34.40;;;26.58;;
32633;SDS011;19043;51.012;5.648;2023-05-10T03:42:48;39.38;;;26.08;;
32633;SDS011;19043;51.012;5.648;2023-05-10T03:45:13;35.30;;;25.98;;
32633;SDS011;19043;51.012;5.648;2023-05-10T03:47:38;43.90;;;27.23;;
32633;SDS011;19043;51.012;5.648;2023-05-10T03:50:04;48.33;;;29.88;;
32633;SDS011;19043;51.012;5.648;2023-05-10T03:52:29;47.33;;;30.02;;
32633;SDS011;19043;51.012;5.648;2023-05-10T03:54:54;35.67;;;29.38;;
32633;SDS011;19043;51.012;5.648;2023-05-10T03:57:20;38.33;;;28.30;;
32633;SDS011;19043;51.012;5.648;2023-05-10T03:59:45;42.10;;;29.48;;
32633;SDS011;19043;51.012;5.648;2023-05-10T04:02:10;45.60;;;30.48;;
32633;SDS011;19043;51.012;5.648;2023-05-10T04:04:35;43.35;;;28.58;;
32633;SDS011;19043;51.012;5.648;2023-05-10T04:07:01;48.90;;;31.25;;
32633;SDS011;19043;51.012;5.648;2023-05-10T04:09:26;56.00;;;32.17;;
32633;SDS011;19043;51.012;5.648;2023-05-10T04:11:51;44.88;;;30.98;;
32633;SDS011;19043;51.012;5.648;2023-05-10T04:14:17;48.08;;;31.38;;
32633;SDS011;19043;51.012;5.648;2023-05-10T04:16:42;49.72;;;31.42;;
32633;SDS011;19043;51.012;5.648;2023-05-10T04:19:07;42.05;;;31.05;;
32633;SDS011;19043;51.012;5.648;2023-05-10T04:21:32;44.67;;;29.40;;
32633;SDS011;19043;51.012;5.648;2023-05-10T04:23:58;41.85;;;30.65;;
32633;SDS011;19043;51.012;5.648;2023-05-10T04:26:23;40.67;;;29.98;;
32633;SDS011;19043;51.012;5.648;2023-05-10T04:28:50;48.08;;;32.55;;
32633;SDS011;19043;51.012;5.648;2023-05-10T04:31:15;49.85;;;30.02;;
32633;SDS011;19043;51.012;5.648;2023-05-10T04:33:40;53.63;;;30.73;;
32633;SDS011;19043;51.012;5.648;2023-05-10T04:36:05;45.17;;;30.10;;
32633;SDS011;19043;51.012;5.648;2023-05-10T04:38:31;43.97;;;30.90;;
32633;SDS011;19043;51.012;5.648;2023-05-10T04:41:08;44.33;;;30.38;;
32633;SDS011;19043;51.012;5.648;2023-05-10T04:43:34;49.67;;;30.23;;
32633;SDS011;19043;51.012;5.648;2023-05-10T04:45:59;42.67;;;29.63;;
32633;SDS011;19043;51.012;5.648;2023-05-10T04:48:25;57.05;;;30.60;;
32633;SDS011;19043;51.012;5.648;2023-05-10T04:50:50;45.15;;;31.42;;
32633;SDS011;19043;51.012;5.648;2023-05-10T04:53:15;48.15;;;28.92;;
32633;SDS011;19043;51.012;5.648;2023-05-10T04:55:41;43.65;;;28.17;;
32633;SDS011;19043;51.012;5.648;2023-05-10T04:58:06;39.80;;;28.77;;
32633;SDS011;19043;51.012;5.648;2023-05-10T05:00:32;32.55;;;27.58;;
32633;SDS011;19043;51.012;5.648;2023-05-10T05:02:59;38.40;;;28.58;;
32633;SDS011;19043;51.012;5.648;2023-05-10T05:05:25;43.75;;;29.35;;
32633;SDS011;19043;51.012;5.648;2023-05-10T05:07:50;37.22;;;27.70;;
32633;SDS011;19043;51.012;5.648;2023-05-10T05:10:15;28.88;;;25.75;;
32633;SDS011;19043;51.012;5.648;2023-05-10T05:12:40;42.42;;;27.70;;
32633;SDS011;19043;51.012;5.648;2023-05-10T05:15:06;37.33;;;27.75;;
32633;SDS011;19043;51.012;5.648;2023-05-10T05:17:33;40.83;;;27.67;;
32633;SDS011;19043;51.012;5.648;2023-05-10T05:19:58;38.83;;;26.65;;
32633;SDS011;19043;51.012;5.648;2023-05-10T05:22:23;38.97;;;27.02;;
32633;SDS011;19043;51.012;5.648;2023-05-10T05:24:55;30.95;;;26.10;;
32633;SDS011;19043;51.012;5.648;2023-05-10T05:27:20;31.30;;;24.27;;
32633;SDS011;19043;51.012;5.648;2023-05-10T05:29:49;28.33;;;21.80;;
32633;SDS011;19043;51.012;5.648;2023-05-10T05:32:14;31.88;;;21.80;;
32633;SDS011;19043;51.012;5.648;2023-05-10T05:34:39;28.80;;;21.38;;
32633;SDS011;19043;51.012;5.648;2023-05-10T05:37:04;33.78;;;21.10;;
32633;SDS011;19043;51.012;5.648;2023-05-10T05:39:30;35.85;;;21.88;;
32633;SDS011;19043;51.012;5.648;2023-05-10T05:41:55;26.75;;;19.60;;
32633;SDS011;19043;51.012;5.648;2023-05-10T05:44:20;22.60;;;20.17;;
32633;SDS011;19043;51.012;5.648;2023-05-10T05:46:46;28.02;;;19.45;;
32633;SDS011;19043;51.012;5.648;2023-05-10T05:49:11;25.35;;;19.20;;
32633;SDS011;19043;51.012;5.648;2023-05-10T05:51:37;24.70;;;18.98;;
32633;SDS011;19043;51.012;5.648;2023-05-10T05:54:02;21.23;;;17.73;;
32633;SDS011;19043;51.012;5.648;2023-05-10T05:56:29;26.17;;;17.25;;
32633;SDS011;19043;51.012;5.648;2023-05-10T05:58:54;23.48;;;16.85;;
32633;SDS011;19043;51.012;5.648;2023-05-10T06:01:19;21.30;;;16.08;;
32633;SDS011;19043;51.012;5.648;2023-05-10T06:03:45;22.23;;;16.27;;
32633;SDS011;19043;51.012;5.648;2023-05-10T06:06:10;26.48;;;17.80;;
32633;SDS011;19043;51.012;5.648;2023-05-10T06:08:36;35.58;;;25.13;;
32633;SDS011;19043;51.012;5.648;2023-05-10T06:11:01;33.30;;;27.08;;
32633;SDS011;19043;51.012;5.648;2023-05-10T06:13:26;34.05;;;27.23;;
32633;SDS011;19043;51.012;5.648;2023-05-10T06:15:57;36.38;;;27.70;;
32633;SDS011;19043;51.012;5.648;2023-05-10T06:18:22;47.67;;;33.17;;
32633;SDS011;19043;51.012;5.648;2023-05-10T06:20:49;44.13;;;33.78;;
32633;SDS011;19043;51.012;5.648;2023-05-10T06:23:14;56.47;;;37.78;;
32633;SDS011;19043;51.012;5.648;2023-05-10T06:25:39;57.25;;;39.22;;
32633;SDS011;19043;51.012;5.648;2023-05-10T06:28:05;53.90;;;38.63;;
32633;SDS011;19043;51.012;5.648;2023-05-10T06:30:30;57.40;;;39.35;;
32633;SDS011;19043;51.012;5.648;2023-05-10T06:32:55;52.17;;;38.28;;
32633;SDS011;19043;51.012;5.648;2023-05-10T06:35:21;54.85;;;38.55;;
32633;SDS011;19043;51.012;5.648;2023-05-10T06:37:46;63.15;;;38.95;;
32633;SDS011;19043;51.012;5.648;2023-05-10T06:40:11;57.67;;;39.55;;
32633;SDS011;19043;51.012;5.648;2023-05-10T06:42:37;54.00;;;37.65;;
32633;SDS011;19043;51.012;5.648;2023-05-10T06:45:02;59.22;;;41.65;;
32633;SDS011;19043;51.012;5.648;2023-05-10T06:47:28;58.22;;;39.42;;
32633;SDS011;19043;51.012;5.648;2023-05-10T06:49:53;61.85;;;40.25;;
32633;SDS011;19043;51.012;5.648;2023-05-10T06:52:18;55.20;;;39.55;;
32633;SDS011;19043;51.012;5.648;2023-05-10T06:54:44;56.08;;;38.67;;
32633;SDS011;19043;51.012;5.648;2023-05-10T06:57:09;56.65;;;39.35;;
32633;SDS011;19043;51.012;5.648;2023-05-10T06:59:34;69.05;;;39.67;;
32633;SDS011;19043;51.012;5.648;2023-05-10T07:02:01;63.00;;;40.90;;
32633;SDS011;19043;51.012;5.648;2023-05-10T07:04:26;60.42;;;39.08;;
32633;SDS011;19043;51.012;5.648;2023-05-10T07:06:52;62.47;;;42.50;;
32633;SDS011;19043;51.012;5.648;2023-05-10T07:09:18;70.53;;;41.80;;
32633;SDS011;19043;51.012;5.648;2023-05-10T07:11:43;68.80;;;41.70;;
32633;SDS011;19043;51.012;5.648;2023-05-10T07:14:08;64.10;;;42.35;;
32633;SDS011;19043;51.012;5.648;2023-05-10T07:16:33;78.75;;;48.53;;
32633;SDS011;19043;51.012;5.648;2023-05-10T07:18:59;78.13;;;44.22;;
32633;SDS011;19043;51.012;5.648;2023-05-10T07:21:24;62.70;;;44.20;;
32633;SDS011;19043;51.012;5.648;2023-05-10T07:23:50;63.05;;;43.03;;
32633;SDS011;19043;51.012;5.648;2023-05-10T07:26:15;65.20;;;43.80;;
32633;SDS011;19043;51.012;5.648;2023-05-10T07:28:40;60.65;;;41.08;;
32633;SDS011;19043;51.012;5.648;2023-05-10T07:31:06;54.45;;;39.13;;
32633;SDS011;19043;51.012;5.648;2023-05-10T07:33:31;51.78;;;36.72;;
32633;SDS011;19043;51.012;5.648;2023-05-10T07:35:57;54.42;;;37.42;;
32633;SDS011;19043;51.012;5.648;2023-05-10T07:38:22;63.63;;;38.42;;
32633;SDS011;19043;51.012;5.648;2023-05-10T07:40:48;53.95;;;36.95;;
32633;SDS011;19043;51.012;5.648;2023-05-10T07:43:13;50.25;;;36.90;;
32633;SDS011;19043;51.012;5.648;2023-05-10T07:45:38;64.07;;;37.15;;
32633;SDS011;19043;51.012;5.648;2023-05-10T07:48:04;55.05;;;34.83;;
32633;SDS011;19043;51.012;5.648;2023-05-10T07:50:29;49.42;;;33.15;;
32633;SDS011;19043;51.012;5.648;2023-05-10T07:52:54;48.72;;;32.08;;
32633;SDS011;19043;51.012;5.648;2023-05-10T07:55:20;46.88;;;32.70;;
32633;SDS011;19043;51.012;5.648;2023-05-10T07:57:46;51.65;;;34.63;;
32633;SDS011;19043;51.012;5.648;2023-05-10T08:00:12;49.08;;;34.00;;
32633;SDS011;19043;51.012;5.648;2023-05-10T08:02:37;49.67;;;34.65;;
32633;SDS011;19043;51.012;5.648;2023-05-10T08:05:03;51.97;;;35.38;;
32633;SDS011;19043;51.012;5.648;2023-05-10T08:07:28;54.22;;;33.10;;
32633;SDS011;19043;51.012;5.648;2023-05-10T08:09:54;51.58;;;36.38;;
32633;SDS011;19043;51.012;5.648;2023-05-10T08:12:19;49.40;;;35.00;;
32633;SDS011;19043;51.012;5.648;2023-05-10T08:14:44;51.10;;;36.50;;
32633;SDS011;19043;51.012;5.648;2023-05-10T08:17:09;43.13;;;33.90;;
32633;SDS011;19043;51.012;5.648;2023-05-10T08:19:35;51.10;;;37.42;;
32633;SDS011;19043;51.012;5.648;2023-05-10T08:22:00;63.28;;;36.05;;
32633;SDS011;19043;51.012;5.648;2023-05-10T08:24:25;60.80;;;39.50;;
32633;SDS011;19043;51.012;5.648;2023-05-10T08:26:50;52.85;;;36.45;;
32633;SDS011;19043;51.012;5.648;2023-05-10T08:29:16;55.47;;;39.60;;
32633;SDS011;19043;51.012;5.648;2023-05-10T08:31:41;51.78;;;36.58;;
32633;SDS011;19043;51.012;5.648;2023-05-10T08:34:07;51.35;;;36.47;;
32633;SDS011;19043;51.012;5.648;2023-05-10T08:36:32;58.10;;;33.17;;
32633;SDS011;19043;51.012;5.648;2023-05-10T08:38:57;43.47;;;31.58;;
32633;SDS011;19043;51.012;5.648;2023-05-10T08:41:23;45.88;;;32.63;;
32633;SDS011;19043;51.012;5.648;2023-05-10T08:43:54;48.63;;;34.00;;
32633;SDS011;19043;51.012;5.648;2023-05-10T08:46:21;55.33;;;32.15;;
32633;SDS011;19043;51.012;5.648;2023-05-10T08:48:47;39.45;;;31.70;;
32633;SDS011;19043;51.012;5.648;2023-05-10T08:51:13;49.72;;;32.88;;
32633;SDS011;19043;51.012;5.648;2023-05-10T08:53:39;40.63;;;30.85;;
32633;SDS011;19043;51.012;5.648;2023-05-10T08:56:04;42.15;;;30.25;;
32633;SDS011;19043;51.012;5.648;2023-05-10T08:58:30;36.80;;;27.52;;
32633;SDS011;19043;51.012;5.648;2023-05-10T09:00:55;35.13;;;26.33;;
32633;SDS011;19043;51.012;5.648;2023-05-10T09:03:21;31.98;;;24.70;;
32633;SDS011;19043;51.012;5.648;2023-05-10T09:05:48;35.53;;;24.75;;
32633;SDS011;19043;51.012;5.648;2023-05-10T09:08:14;36.85;;;25.50;;
32633;SDS011;19043;51.012;5.648;2023-05-10T09:10:41;29.65;;;21.10;;
32633;SDS011;19043;51.012;5.648;2023-05-10T09:13:08;24.63;;;20.35;;
32633;SDS011;19043;51.012;5.648;2023-05-10T09:15:34;17.85;;;15.50;;
32633;SDS011;19043;51.012;5.648;2023-05-10T09:18:00;21.20;;;13.85;;
32633;SDS011;19043;51.012;5.648;2023-05-10T09:20:27;14.18;;;11.77;;
32633;SDS011;19043;51.012;5.648;2023-05-10T09:22:52;14.30;;;11.52;;
32633;SDS011;19043;51.012;5.648;2023-05-10T09:25:17;16.25;;;12.15;;
32633;SDS011;19043;51.012;5.648;2023-05-10T09:27:46;12.48;;;10.55;;
32633;SDS011;19043;51.012;5.648;2023-05-10T09:35:16;17.00;;;12.10;;
32633;SDS011;19043;51.012;5.648;2023-05-10T09:37:43;14.98;;;12.68;;
32633;SDS011;19043;51.012;5.648;2023-05-10T09:40:11;17.17;;;10.95;;
32633;SDS011;19043;51.012;5.648;2023-05-10T09:42:36;18.33;;;13.23;;
32633;SDS011;19043;51.012;5.648;2023-05-10T09:45:02;14.35;;;11.63;;
32633;SDS011;19043;51.012;5.648;2023-05-10T09:47:28;17.75;;;11.27;;
32633;SDS011;19043;51.012;5.648;2023-05-10T09:49:53;16.67;;;11.52;;
32633;SDS011;19043;51.012;5.648;2023-05-10T09:52:22;13.00;;;10.95;;
32633;SDS011;19043;51.012;5.648;2023-05-10T09:54:54;11.57;;;10.00;;
32633;SDS011;19043;51.012;5.648;2023-05-10T09:57:20;14.18;;;11.52;;
32633;SDS011;19043;51.012;5.648;2023-05-10T09:59:46;13.57;;;10.70;;
32633;SDS011;19043;51.012;5.648;2023-05-10T10:02:11;14.18;;;10.68;;
32633;SDS011;19043;51.012;5.648;2023-05-10T10:04:40;19.02;;;11.55;;
32633;SDS011;19043;51.012;5.648;2023-05-10T10:07:06;16.35;;;11.75;;
32633;SDS011;19043;51.012;5.648;2023-05-10T10:09:31;20.30;;;13.55;;
32633;SDS011;19043;51.012;5.648;2023-05-10T10:11:57;14.82;;;11.98;;
32633;SDS011;19043;51.012;5.648;2023-05-10T10:14:23;12.50;;;9.65;;
32633;SDS011;19043;51.012;5.648;2023-05-10T10:16:51;13.43;;;11.73;;
32633;SDS011;19043;51.012;5.648;2023-05-10T10:19:18;12.95;;;11.50;;
32633;SDS011;19043;51.012;5.648;2023-05-10T10:21:43;13.15;;;10.52;;
32633;SDS011;19043;51.012;5.648;2023-05-10T10:24:09;18.52;;;11.07;;
32633;SDS011;19043;51.012;5.648;2023-05-10T10:26:34;15.18;;;10.57;;
32633;SDS011;19043;51.012;5.648;2023-05-10T10:29:17;13.35;;;10.93;;
32633;SDS011;19043;51.012;5.648;2023-05-10T10:34:27;14.00;;;10.80;;
32633;SDS011;19043;51.012;5.648;2023-05-10T10:36:53;14.77;;;10.60;;
32633;SDS011;19043;51.012;5.648;2023-05-10T10:39:19;17.17;;;12.20;;
32633;SDS011;19043;51.012;5.648;2023-05-10T10:41:49;16.95;;;11.80;;
32633;SDS011;19043;51.012;5.648;2023-05-10T10:55:00;10.30;;;8.85;;
32633;SDS011;19043;51.012;5.648;2023-05-10T10:57:26;13.95;;;9.30;;
32633;SDS011;19043;51.012;5.648;2023-05-10T10:59:53;12.15;;;8.20;;
32633;SDS011;19043;51.012;5.648;2023-05-10T11:02:43;12.25;;;8.90;;
32633;SDS011;19043;51.012;5.648;2023-05-10T11:07:54;14.82;;;9.63;;
32633;SDS011;19043;51.012;5.648;2023-05-10T11:10:20;14.55;;;10.48;;
32633;SDS011;19043;51.012;5.648;2023-05-10T11:12:53;14.60;;;11.80;;
32633;SDS011;19043;51.012;5.648;2023-05-10T11:15:19;12.05;;;10.73;;
32633;SDS011;19043;51.012;5.648;2023-05-10T11:17:44;18.38;;;12.38;;
32633;SDS011;19043;51.012;5.648;2023-05-10T11:20:13;16.65;;;12.48;;
32633;SDS011;19043;51.012;5.648;2023-05-10T11:22:52;15.30;;;13.55;;
32633;SDS011;19043;51.012;5.648;2023-05-10T11:25:17;17.95;;;12.32;;
32633;SDS011;19043;51.012;5.648;2023-05-10T11:27:43;15.70;;;12.50;;
32633;SDS011;19043;51.012;5.648;2023-05-10T11:30:11;15.32;;;12.52;;
32633;SDS011;19043;51.012;5.648;2023-05-10T11:32:37;18.08;;;12.10;;
32633;SDS011;19043;51.012;5.648;2023-05-10T11:35:07;12.18;;;10.70;;
32633;SDS011;19043;51.012;5.648;2023-05-10T11:37:32;16.52;;;12.57;;
32633;SDS011;19043;51.012;5.648;2023-05-10T11:39:59;12.45;;;11.20;;
32633;SDS011;19043;51.012;5.648;2023-05-10T11:42:24;14.65;;;12.18;;
32633;SDS011;19043;51.012;5.648;2023-05-10T11:44:49;13.60;;;10.70;;
32633;SDS011;19043;51.012;5.648;2023-05-10T11:47:15;14.02;;;11.32;;
32633;SDS011;19043;51.012;5.648;2023-05-10T11:49:43;12.55;;;10.15;;
32633;SDS011;19043;51.012;5.648;2023-05-10T11:52:08;12.60;;;9.82;;
32633;SDS011;19043;51.012;5.648;2023-05-10T11:54:34;13.50;;;9.82;;
32633;SDS011;19043;51.012;5.648;2023-05-10T11:57:00;11.98;;;8.70;;
32633;SDS011;19043;51.012;5.648;2023-05-10T11:59:25;15.57;;;9.25;;
32633;SDS011;19043;51.012;5.648;2023-05-10T12:01:50;13.40;;;9.17;;
32633;SDS011;19043;51.012;5.648;2023-05-10T12:04:15;11.73;;;8.70;;
32633;SDS011;19043;51.012;5.648;2023-05-10T12:06:41;13.95;;;9.80;;
32633;SDS011;19043;51.012;5.648;2023-05-10T12:09:06;12.55;;;9.13;;
32633;SDS011;19043;51.012;5.648;2023-05-10T12:11:35;13.27;;;9.15;;
32633;SDS011;19043;51.012;5.648;2023-05-10T12:14:03;11.45;;;8.65;;
32633;SDS011;19043;51.012;5.648;2023-05-10T12:16:29;13.27;;;8.63;;
32633;SDS011;19043;51.012;5.648;2023-05-10T12:18:58;10.75;;;7.95;;
32633;SDS011;19043;51.012;5.648;2023-05-10T12:21:24;10.70;;;7.82;;
32633;SDS011;19043;51.012;5.648;2023-05-10T12:23:50;11.27;;;8.15;;
32633;SDS011;19043;51.012;5.648;2023-05-10T12:26:16;12.95;;;7.80;;
32633;SDS011;19043;51.012;5.648;2023-05-10T12:28:42;10.73;;;8.45;;
32633;SDS011;19043;51.012;5.648;2023-05-10T12:31:07;9.77;;;7.93;;
32633;SDS011;19043;51.012;5.648;2023-05-10T12:33:40;11.05;;;7.63;;
32633;SDS011;19043;51.012;5.648;2023-05-10T12:36:12;8.55;;;7.05;;
32633;SDS011;19043;51.012;5.648;2023-05-10T12:38:39;13.93;;;7.85;;
32633;SDS011;19043;51.012;5.648;2023-05-10T12:41:09;9.73;;;7.15;;
32633;SDS011;19043;51.012;5.648;2023-05-10T12:43:34;8.68;;;6.78;;
32633;SDS011;19043;51.012;5.648;2023-05-10T12:46:10;9.00;;;7.55;;
32633;SDS011;19043;51.012;5.648;2023-05-10T12:48:36;11.05;;;7.95;;
32633;SDS011;19043;51.012;5.648;2023-05-10T12:51:02;10.60;;;8.02;;
32633;SDS011;19043;51.012;5.648;2023-05-10T12:53:27;12.13;;;7.22;;
32633;SDS011;19043;51.012;5.648;2023-05-10T12:55:52;13.82;;;7.25;;
32633;SDS011;19043;51.012;5.648;2023-05-10T12:58:18;12.90;;;7.40;;
32633;SDS011;19043;51.012;5.648;2023-05-10T13:00:43;10.20;;;7.72;;
32633;SDS011;19043;51.012;5.648;2023-05-10T13:03:09;7.22;;;6.07;;
32633;SDS011;19043;51.012;5.648;2023-05-10T13:05:35;8.65;;;5.93;;
32633;SDS011;19043;51.012;5.648;2023-05-10T13:08:00;8.07;;;6.25;;
32633;SDS011;19043;51.012;5.648;2023-05-10T13:10:26;8.30;;;5.70;;
32633;SDS011;19043;51.012;5.648;2023-05-10T13:12:51;10.68;;;6.43;;
32633;SDS011;19043;51.012;5.648;2023-05-10T13:15:16;7.97;;;6.43;;
32633;SDS011;19043;51.012;5.648;2023-05-10T13:17:42;6.68;;;4.95;;
32633;SDS011;19043;51.012;5.648;2023-05-10T13:20:07;8.23;;;5.38;;
32633;SDS011;19043;51.012;5.648;2023-05-10T13:22:34;6.45;;;5.47;;
32633;SDS011;19043;51.012;5.648;2023-05-10T13:24:59;9.68;;;5.55;;
32633;SDS011;19043;51.012;5.648;2023-05-10T13:27:24;12.25;;;5.75;;
32633;SDS011;19043;51.012;5.648;2023-05-10T13:29:50;7.90;;;5.83;;
32633;SDS011;19043;51.012;5.648;2023-05-10T13:32:15;8.33;;;5.50;;
32633;SDS011;19043;51.012;5.648;2023-05-10T13:34:40;10.37;;;5.27;;
32633;SDS011;19043;51.012;5.648;2023-05-10T13:37:05;7.18;;;5.40;;
32633;SDS011;19043;51.012;5.648;2023-05-10T13:39:31;6.68;;;4.72;;
32633;SDS011;19043;51.012;5.648;2023-05-10T13:41:59;6.95;;;4.93;;
32633;SDS011;19043;51.012;5.648;2023-05-10T13:44:24;7.10;;;5.30;;
32633;SDS011;19043;51.012;5.648;2023-05-10T13:46:50;7.70;;;4.57;;
32633;SDS011;19043;51.012;5.648;2023-05-10T13:49:15;11.80;;;5.03;;
32633;SDS011;19043;51.012;5.648;2023-05-10T13:51:42;7.75;;;4.57;;
32633;SDS011;19043;51.012;5.648;2023-05-10T13:54:07;6.07;;;3.92;;
32633;SDS011;19043;51.012;5.648;2023-05-10T13:56:32;6.13;;;4.30;;
32633;SDS011;19043;51.012;5.648;2023-05-10T13:58:58;9.32;;;4.10;;
32633;SDS011;19043;51.012;5.648;2023-05-10T14:01:23;6.70;;;3.90;;
32633;SDS011;19043;51.012;5.648;2023-05-10T14:03:49;9.55;;;4.22;;
32633;SDS011;19043;51.012;5.648;2023-05-10T14:06:14;6.47;;;4.13;;
32633;SDS011;19043;51.012;5.648;2023-05-10T14:08:39;9.48;;;4.43;;
32633;SDS011;19043;51.012;5.648;2023-05-10T14:11:05;9.63;;;4.45;;
32633;SDS011;19043;51.012;5.648;2023-05-10T14:13:30;5.95;;;4.50;;
32633;SDS011;19043;51.012;5.648;2023-05-10T14:15:55;9.02;;;5.22;;
32633;SDS011;19043;51.012;5.648;2023-05-10T14:18:21;7.55;;;4.63;;
32633;SDS011;19043;51.012;5.648;2023-05-10T14:20:46;6.78;;;4.63;;
32633;SDS011;19043;51.012;5.648;2023-05-10T14:23:11;11.07;;;5.20;;
32633;SDS011;19043;51.012;5.648;2023-05-10T14:25:37;5.88;;;3.75;;
32633;SDS011;19043;51.012;5.648;2023-05-10T14:28:03;8.90;;;5.57;;
32633;SDS011;19043;51.012;5.648;2023-05-10T14:30:29;7.38;;;4.53;;
32633;SDS011;19043;51.012;5.648;2023-05-10T14:32:54;5.22;;;3.17;;
32633;SDS011;19043;51.012;5.648;2023-05-10T14:35:20;6.07;;;2.85;;
32633;SDS011;19043;51.012;5.648;2023-05-10T14:37:45;7.75;;;3.20;;
32633;SDS011;19043;51.012;5.648;2023-05-10T14:40:11;3.92;;;2.72;;
32633;SDS011;19043;51.012;5.648;2023-05-10T14:42:37;4.82;;;2.67;;
32633;SDS011;19043;51.012;5.648;2023-05-10T14:45:03;3.72;;;2.35;;
32633;SDS011;19043;51.012;5.648;2023-05-10T14:47:28;3.17;;;2.08;;
32633;SDS011;19043;51.012;5.648;2023-05-10T14:49:54;4.82;;;2.13;;
32633;SDS011;19043;51.012;5.648;2023-05-10T14:52:19;5.55;;;2.72;;
32633;SDS011;19043;51.012;5.648;2023-05-10T14:54:44;5.32;;;2.75;;
32633;SDS011;19043;51.012;5.648;2023-05-10T14:57:10;3.70;;;2.28;;
32633;SDS011;19043;51.012;5.648;2023-05-10T14:59:35;6.57;;;2.78;;